Time;durP1;ratioP1;P1;durP2;ratioP2;P2;SDS_P1;SDS_P2;PMS_P1;PMS_P2;Temp;Humidity;BMP_temperature;BMP_pressure;BME280_temperature;BME280_humidity;BME280_pressure;Samples;Min_cycle;Max_cycle;Signal;HPM_P1;HPM_P2
2020/12/07 00:00:24;;;;;;;6.13;2.13;;;28.50;51.30;;;;;;5134246;28;20030;-59
2020/12/07 00:02:52;;;;;;;4.40;1.20;;;28.40;51.40;;;;;;5134454;28;20514;-59
2020/12/07 00:05:20;;;;;;;5.18;1.48;;;28.60;51.80;;;;;;5134045;28;20019;-58
2020/12/07 00:07:48;;;;;;;6.57;1.73;;;28.40;49.50;;;;;;5134068;28;20038;-58
2020/12/07 00:10:16;;;;;;;7.13;1.50;;;28.30;50.20;;;;;;5134361;28;20127;-59
2020/12/07 00:12:45;;;;;;;6.75;1.40;;;28.20;51.00;;;;;;5134349;28;20374;-60
2020/12/07 00:15:13;;;;;;;7.28;2.00;;;28.70;52.60;;;;;;5125570;28;20030;-59
2020/12/07 00:17:41;;;;;;;6.05;1.40;;;28.60;49.30;;;;;;5134310;28;20331;-58
2020/12/07 00:20:10;;;;;;;5.75;1.65;;;28.40;49.00;;;;;;5133951;28;20050;-56
2020/12/07 00:22:38;;;;;;;6.40;1.65;;;28.20;49.10;;;;;;5133694;28;20077;-60
2020/12/07 00:25:06;;;;;;;5.00;1.45;;;27.80;49.80;;;;;;5133844;28;20030;-60
2020/12/07 00:27:35;;;;;;;4.40;1.20;;;28.00;50.20;;;;;;5134165;28;20019;-60
2020/12/07 00:30:06;;;;;;;6.00;1.50;;;28.40;51.60;;;;;;5118898;27;20118;-60
2020/12/07 00:32:35;;;;;;;6.28;1.33;;;28.80;50.80;;;;;;5138278;27;20463;-60
2020/12/07 00:35:03;;;;;;;4.68;1.75;;;29.00;50.00;;;;;;5138071;27;20114;-60
2020/12/07 00:37:32;;;;;;;5.95;1.38;;;29.10;50.20;;;;;;5138110;27;20023;-59
2020/12/07 00:40:00;;;;;;;7.85;1.75;;;29.50;49.70;;;;;;5138023;27;20038;-57
2020/12/07 00:42:28;;;;;;;5.22;1.92;;;29.70;48.90;;;;;;5101800;27;20107;-60
2020/12/07 00:44:55;;;;;;;7.53;1.40;;;29.90;49.40;;;;;;5137925;27;20019;-57
2020/12/07 00:47:23;;;;;;;2.88;1.10;;;29.70;47.90;;;;;;5137886;27;20367;-60
2020/12/07 00:49:51;;;;;;;4.30;1.55;;;29.40;48.90;;;;;;5137772;27;20102;-60
2020/12/07 00:52:19;;;;;;;4.30;1.40;;;29.60;50.70;;;;;;5137795;27;20383;-57
2020/12/07 00:54:47;;;;;;;5.65;1.67;;;29.70;48.50;;;;;;5137721;27;20030;-58
2020/12/07 00:57:15;;;;;;;5.38;1.38;;;29.60;49.20;;;;;;5137255;27;20054;-58
2020/12/07 00:59:43;;;;;;;7.63;1.52;;;29.40;48.80;;;;;;5118716;27;20035;-58
2020/12/07 01:02:12;;;;;;;4.63;1.30;;;29.50;49.00;;;;;;5137520;27;20424;-57
2020/12/07 01:04:40;;;;;;;7.47;1.80;;;29.40;49.20;;;;;;5138311;27;20022;-58
2020/12/07 01:07:07;;;;;;;4.35;1.30;;;29.60;49.10;;;;;;5137506;27;20115;-59
2020/12/07 01:09:35;;;;;;;5.88;1.50;;;29.80;48.70;;;;;;5137498;27;20046;-58
2020/12/07 01:12:03;;;;;;;6.00;1.30;;;30.10;48.50;;;;;;5137449;27;20106;-59
2020/12/07 01:14:31;;;;;;;7.10;1.55;;;29.90;48.80;;;;;;5137617;27;20035;-59
2020/12/07 01:16:59;;;;;;;3.78;1.30;;;29.90;47.90;;;;;;5118476;27;20150;-59
2020/12/07 01:19:28;;;;;;;4.68;1.10;;;29.60;48.80;;;;;;5137270;27;20042;-57
2020/12/07 01:21:56;;;;;;;5.28;1.05;;;29.80;48.10;;;;;;5136857;27;20054;-56
2020/12/07 01:24:24;;;;;;;4.20;1.40;;;29.50;47.00;;;;;;5137254;27;20476;-57
2020/12/07 01:26:52;;;;;;;5.82;1.10;;;29.60;48.20;;;;;;5118195;27;20038;-59
2020/12/07 01:29:21;;;;;;;5.57;1.50;;;29.40;46.50;;;;;;5136896;27;20395;-58
2020/12/07 01:31:49;;;;;;;7.47;1.17;;;29.40;46.90;;;;;;5136940;27;20027;-59
2020/12/07 01:34:17;;;;;;;6.15;1.35;;;29.50;47.90;;;;;;5136653;27;20171;-59
2020/12/07 01:36:45;;;;;;;13.07;1.40;;;30.10;47.60;;;;;;5136933;27;20023;-58
2020/12/07 01:39:13;;;;;;;6.25;1.75;;;30.00;46.70;;;;;;5136883;27;20114;-58
2020/12/07 01:41:41;;;;;;;7.15;1.35;;;29.80;46.30;;;;;;5118238;27;20032;-59
2020/12/07 01:44:09;;;;;;;7.78;1.60;;;29.40;46.20;;;;;;5136813;27;20095;-59
2020/12/07 01:46:38;;;;;;;4.22;1.35;;;29.20;46.50;;;;;;5136396;27;20015;-59
2020/12/07 01:49:06;;;;;;;4.93;1.02;;;29.40;47.50;;;;;;5117836;27;20027;-59
2020/12/07 01:51:37;;;;;;;4.90;1.17;;;29.80;47.10;;;;;;5136581;27;20038;-59
2020/12/07 01:54:05;;;;;;;7.75;1.17;;;30.10;46.30;;;;;;5136792;27;20029;-59
2020/12/07 01:56:33;;;;;;;5.82;1.35;;;30.20;45.80;;;;;;5136196;27;20449;-59
2020/12/07 01:59:01;;;;;;;5.07;1.45;;;30.60;47.00;;;;;;5136156;27;20031;-60
2020/12/07 02:01:29;;;;;;;3.10;1.00;;;30.80;43.70;;;;;;5136114;27;20031;-59
2020/12/07 02:03:58;;;;;;;4.70;1.10;;;30.30;43.90;;;;;;5136146;27;20076;-59
2020/12/07 02:06:25;;;;;;;4.00;0.80;;;30.00;44.60;;;;;;5136685;27;20047;-60
2020/12/07 02:08:54;;;;;;;5.40;1.52;;;29.80;45.00;;;;;;5136470;27;20400;-60
2020/12/07 02:11:22;;;;;;;6.05;0.95;;;30.10;45.40;;;;;;5136337;27;20470;-59
2020/12/07 02:13:50;;;;;;;3.83;0.90;;;30.00;44.60;;;;;;5135794;27;20019;-59
2020/12/07 02:16:18;;;;;;;4.88;1.13;;;30.20;44.60;;;;;;5117530;27;20110;-59
2020/12/07 02:18:46;;;;;;;4.55;1.20;;;30.20;45.00;;;;;;5136173;27;20023;-59
2020/12/07 02:21:14;;;;;;;3.00;0.98;;;30.20;44.80;;;;;;5135830;27;20475;-58
2020/12/07 02:23:42;;;;;;;3.10;0.93;;;30.40;45.90;;;;;;5136125;27;20053;-58
2020/12/07 02:26:09;;;;;;;4.45;0.95;;;30.80;44.80;;;;;;5136101;27;20483;-59
2020/12/07 02:28:37;;;;;;;3.15;0.98;;;31.00;43.20;;;;;;5135966;27;20100;-59
2020/12/07 02:31:05;;;;;;;6.32;1.20;;;30.80;42.90;;;;;;5136408;27;20035;-59
2020/12/07 02:33:33;;;;;;;4.70;1.15;;;30.40;44.10;;;;;;5135678;27;20160;-59
2020/12/07 02:36:01;;;;;;;5.05;1.00;;;30.20;43.30;;;;;;5135824;27;20042;-60
2020/12/07 02:38:29;;;;;;;5.63;1.33;;;30.10;42.80;;;;;;5135499;27;20097;-59
2020/12/07 02:40:57;;;;;;;4.20;0.90;;;30.20;42.70;;;;;;5135383;27;20034;-59
2020/12/07 02:43:25;;;;;;;5.20;1.13;;;30.50;43.80;;;;;;5135391;27;20023;-59
2020/12/07 02:45:53;;;;;;;2.97;0.88;;;30.60;43.30;;;;;;5135587;27;20015;-59
2020/12/07 02:48:21;;;;;;;4.65;1.08;;;30.60;43.50;;;;;;5117367;27;20068;-60
2020/12/07 02:50:48;;;;;;;3.90;1.10;;;30.70;43.80;;;;;;5116551;27;20069;-59
2020/12/07 02:53:16;;;;;;;3.50;1.10;;;31.20;44.10;;;;;;5134542;27;20031;-60
2020/12/07 02:55:44;;;;;;;5.50;0.80;;;31.20;42.30;;;;;;5134897;27;20080;-60
2020/12/07 02:58:11;;;;;;;2.45;0.80;;;30.90;42.60;;;;;;5135441;27;20066;-59
2020/12/07 03:00:39;;;;;;;4.13;0.90;;;30.90;42.50;;;;;;5135293;27;20393;-60
2020/12/07 03:03:08;;;;;;;3.30;1.05;;;31.00;43.00;;;;;;5135041;27;20063;-60
2020/12/07 03:05:36;;;;;;;4.15;0.90;;;31.40;44.00;;;;;;5135245;27;20068;-60
2020/12/07 03:08:04;;;;;;;5.55;1.35;;;31.50;43.00;;;;;;5135235;27;20379;-60
2020/12/07 03:10:31;;;;;;;5.70;0.95;;;31.50;43.80;;;;;;5135223;27;20043;-60
2020/12/07 03:12:59;;;;;;;5.57;1.25;;;31.40;42.30;;;;;;5134864;27;20026;-56
2020/12/07 03:15:27;;;;;;;4.28;0.90;;;31.30;41.90;;;;;;5135336;27;20042;-56
2020/12/07 03:17:55;;;;;;;4.85;1.10;;;31.10;41.70;;;;;;5134673;27;20020;-58
2020/12/07 03:20:23;;;;;;;3.17;0.93;;;31.00;42.00;;;;;;5116029;27;20111;-57
2020/12/07 03:22:51;;;;;;;4.60;0.90;;;30.60;41.70;;;;;;5134993;27;20501;-57
2020/12/07 03:25:19;;;;;;;3.00;0.95;;;30.80;43.30;;;;;;5134555;27;20027;-56
2020/12/07 03:27:47;;;;;;;3.95;1.20;;;30.80;42.00;;;;;;5134860;27;20486;-56
2020/12/07 03:30:15;;;;;;;5.97;1.00;;;30.60;42.70;;;;;;5134936;27;20015;-57
2020/12/07 03:32:43;;;;;;;4.05;1.02;;;30.70;43.70;;;;;;5134869;27;20425;-57
2020/12/07 03:35:11;;;;;;;4.97;1.10;;;30.80;42.80;;;;;;5134829;27;20111;-55
2020/12/07 03:37:39;;;;;;;3.80;1.23;;;30.60;42.70;;;;;;5134468;27;20027;-57
2020/12/07 03:40:07;;;;;;;4.53;1.08;;;30.80;42.80;;;;;;5134720;27;20114;-57
2020/12/07 03:42:35;;;;;;;4.05;0.73;;;31.00;43.60;;;;;;5134381;27;20023;-57
2020/12/07 03:45:03;;;;;;;4.05;0.88;;;31.60;44.10;;;;;;5134419;27;20020;-57
2020/12/07 03:47:31;;;;;;;5.38;1.05;;;31.50;42.70;;;;;;5134632;27;20031;-57
2020/12/07 03:49:59;;;;;;;5.95;1.30;;;31.50;42.20;;;;;;5134626;27;20165;-56
2020/12/07 03:52:27;;;;;;;5.07;1.27;;;31.50;43.40;;;;;;5134499;27;20031;-57
2020/12/07 03:54:55;;;;;;;3.42;1.00;;;31.50;43.10;;;;;;5134554;27;20028;-58
2020/12/07 03:57:23;;;;;;;2.60;0.88;;;31.80;42.70;;;;;;5134094;27;20121;-57
2020/12/07 03:59:51;;;;;;;5.07;1.25;;;31.80;43.10;;;;;;5134536;27;20027;-56
2020/12/07 04:02:19;;;;;;;2.92;1.00;;;31.30;42.40;;;;;;5134367;28;20371;-57
2020/12/07 04:04:50;;;;;;;5.40;1.30;;;31.40;44.10;;;;;;5140740;27;20023;-58
2020/12/07 04:07:18;;;;;;;5.05;0.75;;;31.30;42.60;;;;;;5122970;27;20355;-57
2020/12/07 04:09:46;;;;;;;3.72;1.10;;;31.70;42.70;;;;;;5141245;27;20027;-58
2020/12/07 04:12:14;;;;;;;3.58;1.00;;;31.80;43.50;;;;;;5141286;27;20031;-58
2020/12/07 04:14:42;;;;;;;4.75;1.30;;;32.00;42.90;;;;;;5141456;27;20027;-57
2020/12/07 04:17:10;;;;;;;3.20;0.90;;;31.60;42.10;;;;;;5141102;27;20023;-57
2020/12/07 04:19:38;;;;;;;6.63;1.50;;;31.60;42.80;;;;;;5141059;27;20023;-57
2020/12/07 04:22:06;;;;;;;4.82;1.05;;;31.70;43.20;;;;;;5140541;27;20059;-57
2020/12/07 04:24:35;;;;;;;4.85;0.90;;;31.90;43.30;;;;;;5140788;27;20106;-57
2020/12/07 04:27:03;;;;;;;3.30;0.98;;;31.70;42.40;;;;;;5141073;27;20023;-57
2020/12/07 04:29:30;;;;;;;3.40;1.15;;;31.40;42.00;;;;;;5141032;27;20497;-57
2020/12/07 04:31:58;;;;;;;3.65;0.90;;;31.80;44.10;;;;;;5141106;27;20030;-58
2020/12/07 04:34:26;;;;;;;4.72;1.02;;;32.20;43.90;;;;;;5140699;27;20095;-58
2020/12/07 04:36:57;;;;;;;3.05;0.68;;;32.40;44.40;;;;;;5140763;27;20067;-58
2020/12/07 04:39:25;;;;;;;5.70;1.17;;;32.30;43.90;;;;;;5140325;27;20042;-57
2020/12/07 04:41:53;;;;;;;3.05;1.30;;;32.10;42.50;;;;;;5139806;27;20023;-56
2020/12/07 04:44:21;;;;;;;2.90;0.80;;;32.10;42.80;;;;;;5139776;27;20019;-64
2020/12/07 04:46:49;;;;;;;4.32;0.95;;;31.90;43.70;;;;;;5139892;27;20459;-59
2020/12/07 04:49:18;;;;;;;4.57;0.90;;;32.00;43.40;;;;;;5140183;27;20052;-60
2020/12/07 04:51:47;;;;;;;4.15;1.42;;;32.00;43.10;;;;;;5140560;27;20031;-60
2020/12/07 04:54:16;;;;;;;4.78;0.98;;;32.50;44.00;;;;;;5140436;27;20110;-59
2020/12/07 04:56:44;;;;;;;2.53;0.87;;;32.50;43.10;;;;;;5140464;27;20043;-59
2020/12/07 04:59:12;;;;;;;4.85;1.20;;;32.60;43.20;;;;;;5121711;27;20432;-59
2020/12/07 05:01:40;;;;;;;6.68;0.88;;;32.90;42.00;;;;;;5140678;27;20019;-60
2020/12/07 05:04:08;;;;;;;2.50;1.10;;;32.60;40.90;;;;;;5140446;27;20016;-60
2020/12/07 05:06:36;;;;;;;1.95;0.88;;;32.20;41.30;;;;;;5140608;27;20479;-59
2020/12/07 05:09:05;;;;;;;7.90;1.33;;;31.90;41.40;;;;;;5121819;27;20444;-57
2020/12/07 05:11:33;;;;;;;6.22;1.30;;;32.20;42.60;;;;;;5140320;27;20026;-57
2020/12/07 05:14:07;;;;;;;4.75;1.10;;;32.50;42.90;;;;;;5122311;27;20050;-58
2020/12/07 05:16:35;;;;;;;5.00;1.25;;;32.60;42.60;;;;;;5136242;27;20023;-58
2020/12/07 05:19:08;;;;;;;3.80;1.05;;;32.80;42.00;;;;;;5137319;27;20023;-58
2020/12/07 05:21:38;;;;;;;5.13;0.95;;;32.60;41.80;;;;;;5137214;27;20468;-58
2020/12/07 05:24:06;;;;;;;5.60;0.93;;;32.80;41.90;;;;;;5136340;27;20026;-58
2020/12/07 05:26:39;;;;;;;6.78;0.85;;;33.00;41.50;;;;;;5136115;27;20039;-58
2020/12/07 05:29:11;;;;;;;4.15;0.70;;;32.90;42.00;;;;;;5136065;27;20124;-58
2020/12/07 05:31:39;;;;;;;2.33;0.68;;;33.10;42.10;;;;;;5117941;27;20043;-58
2020/12/07 05:34:07;;;;;;;5.15;1.05;;;33.00;42.00;;;;;;5135932;27;20031;-59
2020/12/07 05:36:35;;;;;;;3.03;1.00;;;32.90;41.80;;;;;;5135873;27;20027;-59
2020/12/07 05:39:07;;;;;;;4.55;1.15;;;32.80;42.10;;;;;;5135926;27;20047;-59
2020/12/07 05:41:36;;;;;;;3.20;0.90;;;32.60;41.60;;;;;;5136085;27;20049;-58
2020/12/07 05:44:05;;;;;;;4.75;1.02;;;32.10;41.50;;;;;;5135989;27;20084;-59
2020/12/07 05:46:35;;;;;;;5.68;0.90;;;31.60;41.70;;;;;;5135821;27;20050;-58
2020/12/07 05:49:05;;;;;;;5.35;1.00;;;32.00;41.40;;;;;;5135771;27;20035;-59
2020/12/07 05:51:33;;;;;;;4.05;0.82;;;32.40;41.40;;;;;;5136792;27;20023;-59
2020/12/07 05:54:02;;;;;;;4.55;1.27;;;32.20;42.40;;;;;;5136649;27;20031;-59
2020/12/07 05:56:34;;;;;;;4.80;0.95;;;32.30;41.60;;;;;;5135594;27;20043;-57
2020/12/07 05:59:16;;;;;;;2.38;0.90;;;32.60;41.70;;;;;;5135492;27;20072;-59
2020/12/07 06:01:47;;;;;;;3.75;0.82;;;32.70;41.40;;;;;;5116552;27;20027;-59
2020/12/07 06:04:15;;;;;;;3.72;0.90;;;32.90;41.60;;;;;;5127824;27;20065;-56
2020/12/07 06:06:46;;;;;;;4.60;1.15;;;33.10;41.40;;;;;;5135284;27;20053;-58
2020/12/07 06:09:23;;;;;;;3.90;1.20;;;32.80;40.90;;;;;;5136152;27;20027;-57
2020/12/07 06:12:02;;;;;;;3.40;1.52;;;32.80;41.30;;;;;;5136169;27;20019;-57
2020/12/07 06:14:31;;;;;;;3.97;0.90;;;33.20;40.10;;;;;;5117098;27;20034;-57
2020/12/07 06:16:59;;;;;;;3.65;0.90;;;33.40;40.70;;;;;;5135904;27;20175;-57
2020/12/07 06:19:31;;;;;;;3.22;0.80;;;33.40;40.80;;;;;;5135559;27;20038;-58
2020/12/07 06:22:00;;;;;;;3.83;0.90;;;32.80;40.70;;;;;;5135549;27;20028;-58
2020/12/07 06:24:48;;;;;;;3.38;0.95;;;32.80;41.60;;;;;;5134914;27;20027;-57
2020/12/07 06:27:16;;;;;;;3.70;1.20;;;32.90;41.70;;;;;;5104486;28;20035;-57
2020/12/07 06:30:07;;;;;;;3.40;0.80;;;33.20;41.20;;;;;;5095600;28;20089;-57
2020/12/07 06:32:54;;;;;;;3.00;1.02;;;33.60;40.40;;;;;;5071767;28;20064;-58
2020/12/07 06:35:26;;;;;;;3.85;0.70;;;33.80;40.00;;;;;;5071544;28;20117;-58
2020/12/07 06:37:53;;;;;;;4.65;1.08;;;34.10;40.90;;;;;;5071847;28;20039;-58
2020/12/07 06:40:25;;;;;;;3.83;1.20;;;34.50;39.90;;;;;;5071410;28;20120;-58
2020/12/07 06:42:52;;;;;;;7.05;1.05;;;33.80;39.30;;;;;;5071423;28;20527;-58
2020/12/07 06:45:39;;;;;;;3.22;0.80;;;33.20;39.30;;;;;;5071429;28;20055;-57
2020/12/07 06:48:21;;;;;;;5.10;1.00;;;33.60;40.40;;;;;;5054569;28;20039;-57
2020/12/07 06:50:51;;;;;;;4.00;0.85;;;33.50;39.60;;;;;;5071509;28;20040;-56
2020/12/07 06:53:41;;;;;;;4.68;1.13;;;33.30;39.60;;;;;;5071279;28;20055;-57
2020/12/07 06:56:09;;;;;;;4.35;0.90;;;33.30;40.60;;;;;;5070779;28;20142;-56
2020/12/07 06:58:41;;;;;;;2.30;0.95;;;33.90;39.40;;;;;;5078049;28;20496;-57
2020/12/07 07:01:16;;;;;;;3.03;0.68;;;33.70;39.50;;;;;;5091007;28;20032;-57
2020/12/07 07:03:51;;;;;;;7.30;1.67;;;33.40;38.80;;;;;;5103270;28;20139;-57
2020/12/07 07:06:21;;;;;;;9.73;4.75;;;33.10;39.00;;;;;;5111300;28;20036;-62
2020/12/07 07:08:51;;;;;;;3.78;1.08;;;32.90;40.10;;;;;;5111462;28;20028;-57
2020/12/07 07:11:18;;;;;;;;;;;32.30;39.80;;;;;;5111773;28;20055;-56
2020/12/07 07:13:51;;;;;;;4.22;1.10;;;31.50;39.50;;;;;;5111240;28;19908;-55
2020/12/07 07:16:19;;;;;;;3.22;0.88;;;31.10;40.40;;;;;;5094506;28;20023;-57
2020/12/07 07:18:47;;;;;;;5.57;1.80;;;30.70;41.10;;;;;;5119944;27;20039;-56
2020/12/07 07:21:15;;;;;;;3.20;0.88;;;30.70;41.20;;;;;;5115681;27;20092;-55
2020/12/07 07:23:44;;;;;;;3.55;1.50;;;30.50;41.40;;;;;;5134380;27;20047;-56
2020/12/07 07:26:21;;;;;;;4.30;1.13;;;30.50;41.90;;;;;;5133702;27;20050;-56
2020/12/07 07:28:51;;;;;;;4.75;1.05;;;30.30;41.30;;;;;;5134075;27;20083;-55
2020/12/07 07:31:20;;;;;;;3.50;0.55;;;30.10;42.60;;;;;;5115649;27;20015;-55
2020/12/07 07:33:48;;;;;;;3.65;0.70;;;29.70;41.30;;;;;;5133934;27;20026;-55
2020/12/07 07:36:25;;;;;;;4.45;0.90;;;29.60;41.70;;;;;;5115348;27;20049;-56
2020/12/07 07:38:55;;;;;;;3.55;0.85;;;29.40;42.30;;;;;;5133059;27;20027;-56
2020/12/07 07:41:26;;;;;;;3.40;0.88;;;29.30;42.30;;;;;;5133832;27;20023;-54
2020/12/07 07:43:56;;;;;;;1.77;0.63;;;29.00;41.90;;;;;;5133853;27;20121;-54
2020/12/07 07:46:24;;;;;;;4.10;0.77;;;29.10;42.30;;;;;;5134048;27;20027;-56
2020/12/07 07:52:14;;;;;;;2.78;0.77;;;29.30;43.20;;;;;;5111155;28;20077;-59
2020/12/07 08:00:53;;;;;;;4.88;0.95;;;29.60;42.00;;;;;;5031247;28;20394;-59
2020/12/07 08:12:40;;;;;;;5.00;0.70;;;28.10;43.30;;;;;;4934290;29;20043;-58
2020/12/07 08:17:17;;;;;;;3.53;1.00;;;27.80;44.20;;;;;;4876949;29;20037;-56
2020/12/07 08:19:47;;;;;;;4.90;0.80;;;27.60;44.10;;;;;;4877180;29;20052;-56
2020/12/07 08:22:18;;;;;;;;;;;27.50;44.30;;;;;;4881070;29;20041;-56
2020/12/07 08:25:00;;;;;;;3.83;0.90;;;27.40;44.70;;;;;;4895530;29;19916;-57
2020/12/07 08:27:34;;;;;;;5.05;0.85;;;27.40;45.00;;;;;;4900687;29;20079;-56
2020/12/07 08:30:04;;;;;;;2.38;0.73;;;27.30;45.40;;;;;;4933125;29;20476;-57
2020/12/07 08:32:32;;;;;;;4.07;0.70;;;27.20;44.60;;;;;;4947087;29;20043;-59
2020/12/07 08:35:10;;;;;;;3.55;0.85;;;27.10;44.00;;;;;;4952404;29;20042;-56
2020/12/07 08:37:45;;;;;;;2.78;0.70;;;27.10;44.20;;;;;;4985483;28;20046;-54
2020/12/07 08:40:13;;;;;;;5.28;0.88;;;27.10;44.40;;;;;;4978054;28;20034;-53
2020/12/07 08:42:42;;;;;;;3.42;0.57;;;27.00;44.20;;;;;;5036065;28;20048;-56
2020/12/07 08:45:09;;;;;;;3.63;0.98;;;26.90;44.20;;;;;;5071473;28;20047;-56
2020/12/07 08:47:38;;;;;;;3.33;0.63;;;26.80;44.10;;;;;;5100149;28;20027;-56
2020/12/07 08:50:06;;;;;;;3.45;0.98;;;26.80;44.10;;;;;;5134051;27;20475;-55
2020/12/07 08:52:34;;;;;;;4.25;1.00;;;26.70;44.70;;;;;;5137532;27;20079;-57
2020/12/07 08:55:01;;;;;;;3.40;0.80;;;26.70;45.20;;;;;;5136914;27;20023;-57
2020/12/07 08:57:29;;;;;;;3.22;0.95;;;26.60;45.00;;;;;;5136636;27;20529;-58
2020/12/07 08:59:57;;;;;;;5.28;1.08;;;26.60;45.30;;;;;;5137285;27;20068;-57
2020/12/07 09:02:25;;;;;;;5.90;0.90;;;26.50;45.50;;;;;;5137390;27;20115;-58
2020/12/07 09:04:52;;;;;;;3.17;0.82;;;26.40;45.40;;;;;;5136718;27;20026;-55
2020/12/07 09:07:20;;;;;;;1.73;0.60;;;26.40;45.60;;;;;;5136587;27;20023;-58
2020/12/07 09:09:48;;;;;;;3.67;0.85;;;26.40;45.90;;;;;;5136960;27;20020;-52
2020/12/07 09:12:15;;;;;;;3.38;0.63;;;26.30;46.00;;;;;;5136767;27;20140;-52
2020/12/07 09:14:43;;;;;;;4.20;1.00;;;26.30;46.30;;;;;;5136583;27;20460;-53
2020/12/07 09:17:11;;;;;;;2.92;0.88;;;26.20;46.60;;;;;;5136425;27;20023;-53
2020/12/07 09:19:40;;;;;;;5.32;0.80;;;26.20;47.10;;;;;;5136235;27;20024;-55
2020/12/07 09:22:08;;;;;;;2.72;0.85;;;26.20;46.50;;;;;;5136162;27;20034;-55
2020/12/07 09:24:35;;;;;;;3.10;0.65;;;26.10;46.70;;;;;;5136329;27;20061;-53
2020/12/07 09:27:03;;;;;;;4.25;0.95;;;26.00;46.50;;;;;;5136302;27;20073;-54
2020/12/07 09:29:30;;;;;;;4.15;0.80;;;26.00;47.10;;;;;;5136408;27;20429;-54
2020/12/07 09:31:58;;;;;;;4.53;0.77;;;26.00;46.30;;;;;;5136121;27;20068;-53
2020/12/07 09:34:25;;;;;;;4.18;0.98;;;26.00;46.60;;;;;;5136175;27;20186;-52
2020/12/07 09:36:53;;;;;;;2.92;1.02;;;25.90;46.70;;;;;;5117266;27;20376;-53
2020/12/07 09:39:21;;;;;;;4.18;0.80;;;25.90;46.40;;;;;;5135958;27;20111;-53
2020/12/07 09:41:49;;;;;;;3.88;0.85;;;25.80;47.10;;;;;;5135935;27;20023;-52
2020/12/07 09:44:17;;;;;;;5.28;1.08;;;25.80;46.80;;;;;;5136233;27;20114;-54
2020/12/07 09:46:45;;;;;;;4.50;1.50;;;25.70;46.90;;;;;;5136186;27;20467;-50
2020/12/07 09:49:13;;;;;;;2.97;1.15;;;25.70;48.80;;;;;;5135571;27;20026;-52
2020/12/07 09:51:40;;;;;;;6.55;1.20;;;25.60;47.50;;;;;;5135815;27;20535;-50
2020/12/07 09:54:08;;;;;;;2.92;0.65;;;25.60;49.00;;;;;;5135474;27;20023;-51
2020/12/07 09:56:36;;;;;;;3.75;0.80;;;25.60;48.30;;;;;;5124910;27;20058;-52
2020/12/07 09:59:04;;;;;;;4.57;1.13;;;25.50;47.40;;;;;;5114987;28;20023;-55
2020/12/07 10:01:32;;;;;;;3.65;0.98;;;25.50;48.90;;;;;;5114480;28;20066;-55
2020/12/07 10:04:00;;;;;;;3.03;0.88;;;25.50;48.30;;;;;;5114815;28;20088;-56
2020/12/07 10:06:27;;;;;;;3.53;0.90;;;25.40;50.00;;;;;;5114604;28;20027;-56
2020/12/07 10:08:55;;;;;;;5.55;1.00;;;25.40;50.40;;;;;;5114614;28;20028;-55
2020/12/07 10:11:24;;;;;;;4.40;0.75;;;25.30;48.70;;;;;;5114999;28;20023;-55
2020/12/07 10:13:51;;;;;;;5.53;0.93;;;25.30;48.10;;;;;;5114699;28;20441;-55
2020/12/07 10:16:19;;;;;;;3.83;0.80;;;25.30;49.90;;;;;;5114514;28;20487;-54
2020/12/07 10:18:47;;;;;;;2.83;0.70;;;25.20;48.70;;;;;;5095797;28;20035;-56
2020/12/07 10:21:15;;;;;;;3.83;0.90;;;25.10;49.60;;;;;;5114467;28;20019;-56
2020/12/07 10:23:42;;;;;;;3.63;0.88;;;25.10;49.50;;;;;;5114724;28;20027;-55
2020/12/07 10:26:11;;;;;;;3.10;0.95;;;25.00;48.40;;;;;;5115297;28;20111;-54
2020/12/07 10:28:38;;;;;;;3.65;0.70;;;24.90;48.00;;;;;;5114839;28;20077;-56
2020/12/07 10:31:06;;;;;;;4.75;1.02;;;24.90;48.60;;;;;;5114712;28;20039;-56
2020/12/07 10:33:33;;;;;;;6.95;1.20;;;24.90;50.90;;;;;;5114224;28;20032;-56
2020/12/07 10:36:01;;;;;;;3.47;0.93;;;24.90;49.30;;;;;;5114227;28;20030;-55
2020/12/07 10:38:28;;;;;;;3.58;1.00;;;24.80;49.10;;;;;;5114278;28;20583;-55
2020/12/07 10:40:56;;;;;;;3.25;0.80;;;24.80;49.30;;;;;;5114637;28;20031;-55
2020/12/07 10:43:24;;;;;;;3.88;0.60;;;24.80;49.40;;;;;;5096393;28;20024;-55
2020/12/07 10:45:51;;;;;;;2.85;1.02;;;24.70;49.20;;;;;;5113991;28;20035;-54
2020/12/07 10:48:19;;;;;;;2.40;0.57;;;24.60;49.70;;;;;;5114234;28;20015;-55
2020/12/07 10:50:46;;;;;;;4.18;0.88;;;24.60;49.50;;;;;;5114486;28;20027;-55
2020/12/07 10:53:14;;;;;;;1.73;0.60;;;24.60;49.60;;;;;;5114384;28;20060;-55
2020/12/07 10:55:41;;;;;;;2.33;0.82;;;24.60;49.60;;;;;;5113693;28;20123;-55
2020/12/07 10:58:09;;;;;;;3.03;1.00;;;24.50;50.30;;;;;;5113841;28;20078;-55
2020/12/07 11:00:38;;;;;;;4.57;0.88;;;24.40;49.90;;;;;;5114012;28;20028;-56
2020/12/07 11:03:07;;;;;;;4.57;0.93;;;24.40;51.60;;;;;;5079229;28;20036;-53
2020/12/07 11:05:36;;;;;;;2.90;0.70;;;24.40;50.60;;;;;;5113643;28;20027;-54
2020/12/07 11:08:12;;;;;;;3.03;0.68;;;24.30;50.10;;;;;;5113958;28;20020;-54
2020/12/07 11:10:40;;;;;;;4.82;0.68;;;24.30;50.60;;;;;;5114031;28;20024;-54
2020/12/07 11:13:22;;;;;;;3.80;0.82;;;24.20;50.50;;;;;;5113040;28;20475;-55
2020/12/07 11:15:50;;;;;;;4.40;0.80;;;24.20;50.30;;;;;;5113804;28;20160;-54
2020/12/07 11:18:18;;;;;;;3.50;0.65;;;24.10;50.80;;;;;;5113798;28;20035;-52
2020/12/07 11:20:46;;;;;;;3.75;0.75;;;24.10;51.30;;;;;;5114242;28;20020;-54
2020/12/07 11:23:14;;;;;;;3.78;0.77;;;24.10;50.70;;;;;;5113884;28;20024;-55
2020/12/07 11:25:42;;;;;;;3.35;0.50;;;24.00;50.90;;;;;;5114288;28;20023;-52
2020/12/07 11:28:10;;;;;;;3.28;0.70;;;23.90;51.70;;;;;;5113723;28;20023;-53
2020/12/07 11:30:37;;;;;;;6.93;0.88;;;23.90;51.60;;;;;;5114156;28;20023;-54
2020/12/07 11:33:04;;;;;;;1.75;0.60;;;23.90;52.70;;;;;;5095301;28;20020;-52
2020/12/07 11:35:32;;;;;;;4.10;0.85;;;23.90;52.70;;;;;;5114016;28;20039;-53
2020/12/07 11:40:58;;;;;;;3.78;0.60;;;23.80;52.00;;;;;;5071691;28;20114;-55
2020/12/07 11:43:45;;;;;;;5.13;1.10;;;23.70;51.40;;;;;;5071279;28;20032;-53
2020/12/07 11:46:36;;;;;;;2.03;0.77;;;23.70;51.80;;;;;;5071070;28;20048;-54
2020/12/07 11:49:04;;;;;;;3.30;1.13;;;23.70;54.20;;;;;;5031118;28;20533;-55
2020/12/07 11:51:32;;;;;;;2.13;0.70;;;23.70;53.90;;;;;;5031551;28;20212;-55
2020/12/07 11:54:00;;;;;;;3.67;1.10;;;23.50;52.00;;;;;;5031301;28;20037;-55
2020/12/07 11:56:33;;;;;;;2.13;0.73;;;23.50;52.80;;;;;;5030955;28;20123;-56
2020/12/07 11:59:01;;;;;;;2.85;1.00;;;23.40;53.60;;;;;;5031261;28;20554;-56
2020/12/07 12:01:32;;;;;;;2.92;1.00;;;23.30;53.50;;;;;;5030901;28;20030;-54
2020/12/07 12:04:04;;;;;;;3.10;0.82;;;23.20;55.20;;;;;;5031513;28;20025;-52
2020/12/07 12:06:34;;;;;;;4.22;1.00;;;23.20;53.40;;;;;;5030838;28;20029;-55
2020/12/07 12:09:05;;;;;;;2.25;0.90;;;23.20;52.50;;;;;;5031160;28;20459;-54
2020/12/07 12:11:33;;;;;;;;;;;23.20;53.90;;;;;;5032362;28;20042;-51
2020/12/07 12:14:02;;;;;;;3.35;0.70;;;23.20;53.50;;;;;;5031155;28;20341;-55
2020/12/07 12:16:29;;;;;;;2.38;0.93;;;23.10;54.00;;;;;;4998953;28;20037;-54
2020/12/07 12:18:58;;;;;;;4.03;1.00;;;23.00;55.20;;;;;;5067614;28;20048;-54
2020/12/07 12:21:29;;;;;;;3.42;0.95;;;22.90;55.80;;;;;;5113447;28;20044;-53
2020/12/07 12:23:58;;;;;;;2.20;0.85;;;22.80;56.00;;;;;;5114140;28;20066;-55
2020/12/07 12:26:26;;;;;;;3.55;0.70;;;22.80;56.00;;;;;;5118506;28;20353;-55
2020/12/07 12:28:54;;;;;;;2.13;0.60;;;22.70;55.50;;;;;;5099324;28;20024;-55
2020/12/07 12:31:22;;;;;;;5.68;1.05;;;22.80;54.90;;;;;;5117888;28;20028;-54
2020/12/07 12:33:49;;;;;;;4.95;0.98;;;22.80;54.70;;;;;;5117820;28;20387;-54
2020/12/07 12:36:19;;;;;;;5.30;1.25;;;22.90;54.80;;;;;;5118325;28;20027;-53
2020/12/07 12:38:48;;;;;;;3.65;0.80;;;22.90;55.30;;;;;;5117528;28;20077;-57
2020/12/07 12:41:16;;;;;;;3.55;0.85;;;22.80;53.30;;;;;;5117387;28;20145;-58
2020/12/07 12:43:45;;;;;;;3.08;0.70;;;22.80;53.30;;;;;;5117031;28;20039;-57
2020/12/07 12:46:13;;;;;;;4.05;0.60;;;22.80;53.00;;;;;;5116812;28;20024;-57
2020/12/07 12:48:41;;;;;;;2.83;0.57;;;22.70;53.40;;;;;;5117339;28;20035;-58
2020/12/07 12:51:10;;;;;;;3.83;0.70;;;22.70;53.30;;;;;;5099209;28;20098;-57
2020/12/07 12:53:39;;;;;;;3.38;0.80;;;22.60;53.50;;;;;;5117041;28;20046;-57
2020/12/07 12:56:11;;;;;;;1.02;0.45;;;22.60;53.50;;;;;;5117054;28;20130;-55
2020/12/07 12:58:39;;;;;;;1.70;0.40;;;22.50;53.80;;;;;;5117627;28;20085;-58
2020/12/07 13:01:07;;;;;;;3.60;0.90;;;22.50;54.70;;;;;;5081353;28;20042;-57
2020/12/07 13:03:36;;;;;;;2.30;0.80;;;22.50;54.10;;;;;;5117201;28;20030;-58
2020/12/07 13:06:04;;;;;;;2.92;0.50;;;22.40;54.20;;;;;;5098673;28;20027;-57
2020/12/07 13:08:32;;;;;;;3.88;0.65;;;22.50;53.90;;;;;;5117201;28;20517;-57
2020/12/07 13:11:00;;;;;;;2.53;0.38;;;22.50;53.80;;;;;;5116813;28;20145;-57
2020/12/07 13:13:35;;;;;;;4.05;0.70;;;22.40;53.90;;;;;;5116828;28;20023;-57
2020/12/07 13:16:10;;;;;;;2.58;0.77;;;22.40;54.20;;;;;;5116753;28;20020;-55
2020/12/07 13:18:49;;;;;;;3.92;0.80;;;22.30;55.70;;;;;;5117545;28;20363;-56
2020/12/07 13:21:34;;;;;;;2.72;0.52;;;22.10;55.90;;;;;;5116347;28;20126;-57